createdAt,value
2018-05-09T00:01:59.283Z,78.33
2018-05-09T00:04:26.859Z,78.33
2018-05-09T00:06:54.466Z,78.39
2018-05-09T00:09:21.994Z,78.35
2018-05-09T00:11:49.700Z,78.36
2018-05-09T00:14:17.359Z,78.39
2018-05-09T00:16:45.035Z,78.38
2018-05-09T00:19:12.851Z,78.46
2018-05-09T00:21:40.449Z,78.59
2018-05-09T00:24:07.992Z,78.70
2018-05-09T00:26:35.552Z,78.84
2018-05-09T00:29:03.143Z,78.98
2018-05-09T00:31:30.981Z,79.05
2018-05-09T00:33:58.744Z,79.08
2018-05-09T00:36:26.591Z,79.14
2018-05-09T00:38:54.181Z,79.21
2018-05-09T00:41:21.726Z,79.34
2018-05-09T00:43:49.319Z,79.46
2018-05-09T00:46:17.187Z,79.51
2018-05-09T00:48:45.136Z,79.59
2018-05-09T00:51:12.990Z,79.66
2018-05-09T00:53:40.623Z,79.70
2018-05-09T00:56:08.690Z,79.76
2018-05-09T00:58:36.299Z,79.84
2018-05-09T01:01:03.908Z,79.85
2018-05-09T01:03:31.665Z,79.87
2018-05-09T01:05:59.539Z,79.90
2018-05-09T01:08:27.309Z,79.93
2018-05-09T01:10:55.041Z,79.94
2018-05-09T01:13:22.676Z,80.02
2018-05-09T01:15:50.229Z,80.03
2018-05-09T01:18:17.755Z,80.05
2018-05-09T01:20:45.314Z,80.11
2018-05-09T01:23:12.976Z,80.12
2018-05-09T01:25:40.711Z,80.15
2018-05-09T01:28:09.428Z,80.12
2018-05-09T01:30:37.218Z,80.09
2018-05-09T01:33:04.749Z,80.04
2018-05-09T01:35:32.292Z,79.95
2018-05-09T01:37:59.911Z,79.94
2018-05-09T01:40:28.516Z,79.85
2018-05-09T01:42:56.159Z,79.96
2018-05-09T01:45:28.385Z,80.01
2018-05-09T01:47:55.981Z,80.04
2018-05-09T01:50:23.588Z,80.09
2018-05-09T01:52:51.143Z,80.19
2018-05-09T01:55:18.722Z,80.25
2018-05-09T01:57:46.561Z,80.32
2018-05-09T02:00:14.440Z,80.34
2018-05-09T02:02:43.060Z,80.37
2018-05-09T02:05:10.596Z,80.37
2018-05-09T02:07:38.165Z,80.39
2018-05-09T02:10:05.748Z,80.41
2018-05-09T02:12:33.294Z,80.41
2018-05-09T02:15:00.921Z,80.38
2018-05-09T02:17:28.637Z,80.33
2018-05-09T02:19:56.300Z,80.39
2018-05-09T02:22:23.832Z,80.40
2018-05-09T02:24:51.417Z,80.46
2018-05-09T02:27:19.002Z,80.56
2018-05-09T02:29:46.729Z,80.59
2018-05-09T02:32:14.624Z,80.57
2018-05-09T02:34:42.654Z,80.61
2018-05-09T02:37:10.452Z,80.71
2018-05-09T02:39:37.989Z,80.82
2018-05-09T02:42:05.575Z,80.85
2018-05-09T02:44:33.208Z,80.83
2018-05-09T02:47:00.835Z,80.78
2018-05-09T02:49:28.605Z,80.76
2018-05-09T02:51:56.248Z,80.79
2018-05-09T02:54:24.000Z,80.78
2018-05-09T02:56:51.563Z,80.76
2018-05-09T02:59:19.185Z,80.81
2018-05-09T03:01:46.748Z,80.93
2018-05-09T03:04:14.654Z,81.35
2018-05-09T03:06:42.601Z,81.84
2018-05-09T03:09:10.856Z,81.90
2018-05-09T03:11:38.713Z,81.95
2018-05-09T03:14:06.266Z,82.17
2018-05-09T03:16:33.799Z,82.20
2018-05-09T03:19:01.399Z,82.77
2018-05-09T03:21:29.078Z,82.77
2018-05-09T03:23:56.884Z,82.81
2018-05-09T03:26:25.411Z,83.35
2018-05-09T03:28:53.114Z,83.29
2018-05-09T03:31:20.650Z,83.49
2018-05-09T03:33:48.234Z,83.37
2018-05-09T03:36:15.879Z,83.35
2018-05-09T03:38:43.448Z,83.43
2018-05-09T03:41:11.160Z,83.58
2018-05-09T03:43:38.924Z,83.81
2018-05-09T03:46:06.689Z,83.72
2018-05-09T03:48:34.263Z,83.83
2018-05-09T03:51:01.811Z,83.87
2018-05-09T03:53:29.400Z,83.90
2018-05-09T03:55:56.930Z,83.95
2018-05-09T03:58:24.581Z,84.09
2018-05-09T04:00:52.240Z,84.15
2018-05-09T04:03:31.651Z,84.22
2018-05-09T04:06:11.159Z,84.30
2018-05-09T04:08:51.442Z,84.39
2018-05-09T04:11:19.088Z,84.47
2018-05-09T04:13:46.770Z,84.52
2018-05-09T04:16:14.431Z,84.55
2018-05-09T04:18:42.267Z,84.65
2018-05-09T04:21:09.921Z,84.68
2018-05-09T04:23:38.242Z,84.70
2018-05-09T04:26:05.843Z,84.76
2018-05-09T04:28:33.414Z,84.83
2018-05-09T04:31:01.141Z,84.90
2018-05-09T04:33:29.012Z,85.31
2018-05-09T04:35:56.752Z,85.68
2018-05-09T04:38:24.555Z,85.87
2018-05-09T04:40:52.147Z,85.77
2018-05-09T04:43:19.707Z,85.57
2018-05-09T04:45:47.435Z,85.57
2018-05-09T04:48:15.283Z,85.45
2018-05-09T04:50:42.948Z,85.42
2018-05-09T04:53:10.613Z,85.31
2018-05-09T04:55:38.388Z,85.23
2018-05-09T04:58:05.934Z,85.22
2018-05-09T05:00:33.509Z,85.19
2018-05-09T05:03:01.115Z,85.11
2018-05-09T05:05:28.985Z,85.11
2018-05-09T05:07:56.622Z,85.08
2018-05-09T05:10:24.307Z,85.33
2018-05-09T05:12:51.925Z,85.39
2018-05-09T05:15:19.474Z,85.27
2018-05-09T05:17:47.117Z,85.21
2018-05-09T05:20:14.674Z,85.13
2018-05-09T05:22:42.717Z,85.12
2018-05-09T05:25:10.484Z,85.07
2018-05-09T05:27:38.201Z,85.04
2018-05-09T05:30:06.326Z,84.96
2018-05-09T05:32:33.879Z,84.91
2018-05-09T05:35:01.448Z,84.86
2018-05-09T05:37:29.108Z,84.80
2018-05-09T05:39:56.755Z,84.75
2018-05-09T05:42:24.403Z,84.71
2018-05-09T05:44:52.213Z,84.64
2018-05-09T05:47:19.869Z,84.55
2018-05-09T05:49:47.457Z,84.43
2018-05-09T05:52:15.003Z,84.30
2018-05-09T05:54:42.521Z,84.19
2018-05-09T05:57:11.423Z,84.09
2018-05-09T05:59:39.109Z,84.00
2018-05-09T06:02:06.803Z,83.95
2018-05-09T06:04:34.641Z,83.90
2018-05-09T06:07:02.191Z,83.87
2018-05-09T06:09:29.707Z,83.88
2018-05-09T06:11:57.267Z,83.88
2018-05-09T06:14:24.904Z,83.90
2018-05-09T06:16:52.507Z,83.89
2018-05-09T06:19:20.149Z,83.87
2018-05-09T06:21:47.957Z,83.84
2018-05-09T06:24:15.610Z,83.82
2018-05-09T06:26:43.218Z,83.80
2018-05-09T06:29:10.844Z,83.81
2018-05-09T06:31:38.710Z,83.84
2018-05-09T06:34:07.453Z,83.87
2018-05-09T06:36:35.076Z,83.86
2018-05-09T06:39:02.881Z,83.83
2018-05-09T06:41:30.451Z,83.75
2018-05-09T06:43:58.006Z,83.66
2018-05-09T06:46:25.602Z,83.61
2018-05-09T06:48:53.231Z,83.54
2018-05-09T06:51:20.906Z,83.47
2018-05-09T06:53:48.657Z,83.27
2018-05-09T06:56:16.208Z,83.19
2018-05-09T06:58:44.580Z,83.00
2018-05-09T07:01:12.123Z,82.79
2018-05-09T07:03:39.991Z,82.71
2018-05-09T07:06:07.713Z,82.73
2018-05-09T07:08:35.461Z,82.64
2018-05-09T07:11:03.118Z,82.55
2018-05-09T07:13:33.733Z,82.29
2018-05-09T07:16:01.390Z,81.88
2018-05-09T07:18:29.026Z,81.68
2018-05-09T07:20:56.675Z,81.14
2018-05-09T07:23:24.499Z,80.89
2018-05-09T07:25:52.175Z,81.03
2018-05-09T07:28:19.952Z,80.13
2018-05-09T07:30:47.639Z,80.38
2018-05-09T07:33:15.223Z,80.21
2018-05-09T07:35:42.767Z,80.12
2018-05-09T07:38:10.351Z,79.56
2018-05-09T07:40:37.898Z,79.42
2018-05-09T07:43:05.591Z,78.96
2018-05-09T07:45:33.416Z,78.31
2018-05-09T07:48:01.065Z,76.27
2018-05-09T07:50:28.656Z,76.33
2018-05-09T07:52:56.216Z,75.52
2018-05-09T07:55:23.764Z,75.39
2018-05-09T07:57:51.627Z,75.29
2018-05-09T08:00:19.325Z,75.50
2018-05-09T08:02:46.985Z,75.23
2018-05-09T08:05:14.655Z,74.37
2018-05-09T08:07:53.391Z,74.50
2018-05-09T08:10:20.934Z,74.32
2018-05-09T08:12:48.500Z,73.78
2018-05-09T08:15:16.078Z,73.67
2018-05-09T08:17:43.929Z,73.52
2018-05-09T08:20:11.653Z,73.40
2018-05-09T08:22:39.275Z,72.89
2018-05-09T08:25:06.862Z,73.01
2018-05-09T08:27:34.426Z,72.74
2018-05-09T08:30:02.773Z,72.69
2018-05-09T08:32:30.501Z,71.06
2018-05-09T08:34:58.374Z,68.68
2018-05-09T08:37:25.937Z,69.32
2018-05-09T08:39:53.476Z,68.24
2018-05-09T08:42:21.044Z,66.91
2018-05-09T08:44:48.583Z,64.63
2018-05-09T08:47:16.171Z,65.23
2018-05-09T08:49:43.747Z,65.11
2018-05-09T08:52:11.412Z,64.63
2018-05-09T08:54:39.091Z,64.09
2018-05-09T08:57:06.727Z,64.74
2018-05-09T08:59:34.215Z,65.71
2018-05-09T09:02:01.828Z,65.97
2018-05-09T09:04:29.447Z,66.19
2018-05-09T09:06:57.051Z,66.51
2018-05-09T09:18:08.475Z,66.43
2018-05-09T09:20:36.378Z,66.84
2018-05-09T09:23:03.919Z,66.63
2018-05-09T09:34:12.121Z,67.01
2018-05-09T09:36:39.975Z,67.13
2018-05-09T09:39:07.591Z,67.00
2018-05-09T09:41:35.765Z,66.97
2018-05-09T09:52:40.964Z,67.09
2018-05-09T09:55:08.519Z,66.61
2018-05-09T09:57:36.195Z,66.59
2018-05-09T10:08:51.344Z,64.69
2018-05-09T10:11:18.964Z,64.77
2018-05-09T10:13:46.487Z,65.50
2018-05-09T10:26:47.643Z,66.31
2018-05-09T10:29:15.195Z,65.80
2018-05-09T10:31:42.821Z,65.39
2018-05-09T10:42:27.571Z,63.08
2018-05-09T10:44:55.275Z,61.60
2018-05-09T10:47:22.912Z,61.88
2018-05-09T10:49:50.719Z,61.63
2018-05-09T11:01:16.913Z,61.95
2018-05-09T11:03:44.684Z,62.26
2018-05-09T11:06:12.393Z,62.10
2018-05-09T11:17:49.999Z,60.63
2018-05-09T11:20:17.687Z,60.43
2018-05-09T11:22:45.353Z,60.58
2018-05-09T11:34:11.984Z,59.68
2018-05-09T11:36:39.622Z,60.01
2018-05-09T11:39:07.230Z,60.22
2018-05-09T11:41:36.256Z,59.62
2018-05-09T11:52:56.156Z,61.28
2018-05-09T11:55:23.864Z,61.10
2018-05-09T11:57:51.497Z,60.77
2018-05-09T12:09:17.324Z,61.51
2018-05-09T12:11:44.987Z,60.92
2018-05-09T12:14:12.662Z,61.63
2018-05-09T12:25:09.599Z,62.44
2018-05-09T12:27:37.359Z,62.22
2018-05-09T12:30:05.023Z,62.11
2018-05-09T12:32:32.749Z,61.93
2018-05-09T12:37:47.045Z,62.87
2018-05-09T12:43:07.693Z,62.66
2018-05-09T12:45:35.245Z,62.30
2018-05-09T12:48:02.795Z,63.14
2018-05-09T12:55:59.561Z,63.36
2018-05-09T13:01:06.967Z,63.53
2018-05-09T13:03:34.655Z,64.06
2018-05-09T13:06:02.460Z,64.33
2018-05-09T13:16:50.139Z,63.83
2018-05-09T13:19:17.977Z,63.99
2018-05-09T13:21:45.719Z,64.26
2018-05-09T13:24:13.400Z,64.31
2018-05-09T13:35:06.500Z,63.94
2018-05-09T13:37:39.465Z,63.46
2018-05-09T13:40:07.229Z,63.37
2018-05-09T13:51:29.325Z,63.94
2018-05-09T13:53:56.996Z,64.33
2018-05-09T13:56:24.644Z,64.40
2018-05-09T13:58:52.410Z,64.03
2018-05-09T14:10:08.936Z,64.94
2018-05-09T14:12:36.553Z,64.92
2018-05-09T14:15:04.156Z,64.94
2018-05-09T14:26:39.760Z,65.23
2018-05-09T14:29:07.474Z,65.75
2018-05-09T14:31:35.054Z,66.40
2018-05-09T14:37:08.774Z,69.64
2018-05-09T14:39:37.051Z,70.63
2018-05-09T14:42:04.565Z,71.60
2018-05-09T14:44:32.058Z,73.02
2018-05-09T14:46:59.583Z,73.36
2018-05-09T14:49:27.070Z,73.25
2018-05-09T14:51:55.637Z,74.43
2018-05-09T14:54:23.985Z,74.60
2018-05-09T14:56:52.117Z,75.45
2018-05-09T14:59:21.371Z,75.94
2018-05-09T15:01:50.074Z,76.27
2018-05-09T15:04:17.545Z,76.09
2018-05-09T15:06:45.060Z,76.16
2018-05-09T15:09:12.614Z,75.99
2018-05-09T15:11:41.012Z,76.19
2018-05-09T15:14:09.232Z,76.37
2018-05-09T15:16:36.729Z,76.67
2018-05-09T15:19:04.238Z,76.48
2018-05-09T15:21:31.721Z,76.98
2018-05-09T15:23:59.208Z,77.27
2018-05-09T15:26:27.936Z,77.03
2018-05-09T15:28:57.092Z,76.74
2018-05-09T15:31:24.601Z,76.33
2018-05-09T15:33:52.923Z,76.19
2018-05-09T15:36:20.434Z,76.04
2018-05-09T15:38:48.031Z,75.98
2018-05-09T15:41:15.444Z,75.65
2018-05-09T15:43:43.941Z,75.23
2018-05-09T15:46:15.963Z,74.72
2018-05-09T15:48:47.755Z,74.63
2018-05-09T15:51:16.938Z,74.72
2018-05-09T15:53:44.434Z,75.41
2018-05-09T15:56:11.930Z,75.50
2018-05-09T15:58:39.426Z,76.13
2018-05-09T16:01:11.339Z,76.30
2018-05-09T16:03:39.840Z,76.05
2018-05-09T16:06:08.791Z,75.85
2018-05-09T16:08:37.153Z,75.78
2018-05-09T16:11:04.640Z,75.67
2018-05-09T16:13:32.157Z,75.54
2018-05-09T16:15:59.662Z,75.33
2018-05-09T16:18:33.025Z,75.26
2018-05-09T16:21:00.806Z,75.13
2018-05-09T16:23:29.999Z,74.93
2018-05-09T16:26:00.045Z,74.83
2018-05-09T16:28:28.098Z,74.57
2018-05-09T16:30:55.625Z,74.50
2018-05-09T16:33:23.137Z,74.45
2018-05-09T16:35:53.131Z,74.41
2018-05-09T16:38:20.675Z,74.54
2018-05-09T16:40:48.809Z,75.13
2018-05-09T16:43:17.206Z,75.73
2018-05-09T16:45:44.749Z,77.07
2018-05-09T16:48:12.292Z,77.71
2018-05-09T16:50:39.782Z,78.25
2018-05-09T16:53:08.308Z,78.68
2018-05-09T16:55:36.984Z,78.51
2018-05-09T16:58:04.626Z,78.58
2018-05-09T17:00:33.089Z,78.96
2018-05-09T17:03:00.590Z,79.22
2018-05-09T17:05:28.162Z,79.22
2018-05-09T17:07:55.594Z,79.23
2018-05-09T17:10:24.592Z,79.26
2018-05-09T17:12:53.054Z,79.19
2018-05-09T17:15:20.584Z,79.18
2018-05-09T17:17:48.971Z,79.32
2018-05-09T17:20:16.514Z,79.59
2018-05-09T17:22:43.962Z,79.50
2018-05-09T17:25:11.501Z,79.57
2018-05-09T17:27:40.639Z,79.34
2018-05-09T17:30:08.927Z,79.27
2018-05-09T17:32:36.554Z,79.24
2018-05-09T17:35:05.071Z,79.10
2018-05-09T17:37:32.593Z,78.96
2018-05-09T17:40:00.098Z,78.87
2018-05-09T17:42:27.587Z,78.78
2018-05-09T17:44:59.535Z,78.76
2018-05-09T17:47:31.454Z,78.77
2018-05-09T17:50:03.124Z,78.81
2018-05-09T17:52:35.171Z,79.06
2018-05-09T17:55:02.680Z,79.23
2018-05-09T17:57:30.192Z,79.19
2018-05-09T17:59:57.665Z,79.06
2018-05-09T18:02:25.210Z,78.95
2018-05-09T18:04:52.977Z,78.83
2018-05-09T18:07:21.242Z,78.67
2018-05-09T18:09:48.718Z,78.63
2018-05-09T18:12:16.217Z,78.60
2018-05-09T18:14:43.721Z,78.55
2018-05-09T18:17:11.214Z,78.47
2018-05-09T18:19:39.815Z,78.44
2018-05-09T18:22:08.295Z,78.47
2018-05-09T18:24:37.030Z,78.52
2018-05-09T18:27:04.665Z,78.43
2018-05-09T18:29:32.139Z,78.40
2018-05-09T18:31:59.658Z,78.41
2018-05-09T18:34:27.147Z,78.49
2018-05-09T18:36:57.198Z,78.48
2018-05-09T18:39:24.737Z,78.49
2018-05-09T18:41:53.141Z,78.51
2018-05-09T18:44:20.695Z,78.57
2018-05-09T18:46:48.218Z,78.78
2018-05-09T18:49:15.730Z,79.17
2018-05-09T18:51:43.239Z,80.51
2018-05-09T18:54:15.491Z,80.99
2018-05-09T18:56:53.277Z,81.69
2018-05-09T19:01:59.126Z,81.85
2018-05-09T19:04:26.679Z,81.87
2018-05-09T19:06:54.249Z,82.38
2018-05-09T19:09:21.778Z,82.69
2018-05-09T19:19:34.320Z,83.05
2018-05-09T19:22:01.814Z,82.93
2018-05-09T19:24:29.303Z,83.06
2018-05-09T19:26:56.829Z,83.01
2018-05-09T19:29:25.363Z,83.07
2018-05-09T19:32:00.919Z,83.22
2018-05-09T19:34:31.497Z,83.18
2018-05-09T19:36:59.001Z,84.50
2018-05-09T19:39:27.672Z,84.78
2018-05-09T19:41:55.155Z,85.01
2018-05-09T19:44:22.691Z,85.13
2018-05-09T19:52:00.562Z,85.87
2018-05-09T19:54:31.802Z,86.19
2018-05-09T19:56:59.278Z,86.24
2018-05-09T19:59:26.790Z,86.80
2018-05-09T20:01:54.354Z,87.29
2018-05-09T20:04:23.635Z,87.41
2018-05-09T20:06:52.916Z,87.13
2018-05-09T20:09:21.219Z,86.66
2018-05-09T20:11:48.799Z,86.07
2018-05-09T20:14:16.292Z,85.79
2018-05-09T20:16:43.814Z,85.77
2018-05-09T20:19:11.327Z,85.67
2018-05-09T20:29:30.071Z,84.56
2018-05-09T20:32:09.407Z,83.69
2018-05-09T20:34:36.928Z,82.87
2018-05-09T20:37:04.448Z,82.10
2018-05-09T20:39:32.806Z,81.31
2018-05-09T20:42:04.483Z,80.76
2018-05-09T20:44:33.164Z,80.21
2018-05-09T20:47:00.706Z,79.71
2018-05-09T20:49:28.225Z,79.24
2018-05-09T20:51:55.710Z,78.90
2018-05-09T20:54:23.231Z,78.81
2018-05-09T21:01:59.258Z,79.20
2018-05-09T21:04:26.774Z,79.33
2018-05-09T21:06:54.286Z,79.51
2018-05-09T21:09:21.830Z,79.74
2018-05-09T21:17:09.288Z,80.97
2018-05-09T21:19:36.824Z,81.27
2018-05-09T21:22:04.310Z,81.64
2018-05-09T21:24:31.815Z,82.47
2018-05-09T21:26:59.366Z,82.78
2018-05-09T21:29:27.857Z,82.94
2018-05-09T21:31:56.326Z,82.96
2018-05-09T21:34:25.372Z,83.14
2018-05-09T21:36:57.054Z,83.31
2018-05-09T21:39:24.556Z,83.55
2018-05-09T21:41:52.034Z,83.75
2018-05-09T21:44:19.541Z,83.92
2018-05-09T21:52:03.399Z,83.70
2018-05-09T21:54:35.336Z,83.42
2018-05-09T21:57:02.831Z,83.18
2018-05-09T21:59:30.362Z,82.89
2018-05-09T22:01:57.870Z,82.64
2018-05-09T22:04:28.143Z,82.41
2018-05-09T22:06:57.103Z,82.26
2018-05-09T22:09:27.452Z,82.19
2018-05-09T22:11:56.174Z,82.16
2018-05-09T22:14:23.663Z,82.15
2018-05-09T22:16:51.186Z,82.17
2018-05-09T22:19:18.689Z,82.17
2018-05-09T22:21:47.518Z,82.18
2018-05-09T22:24:15.412Z,82.20
2018-05-09T22:26:45.365Z,82.14
2018-05-09T22:29:12.878Z,82.09
2018-05-09T22:31:40.384Z,82.06
2018-05-09T22:34:07.900Z,82.03
2018-05-09T22:36:36.386Z,82.04
2018-05-09T22:39:04.787Z,82.11
2018-05-09T22:41:33.235Z,82.16
2018-05-09T22:44:00.758Z,82.14
2018-05-09T22:46:29.402Z,82.19
2018-05-09T22:48:56.910Z,82.25
2018-05-09T22:51:24.379Z,82.34
2018-05-09T22:53:51.891Z,82.46
2018-05-09T22:56:20.404Z,82.58
2018-05-09T22:58:49.139Z,82.56
2018-05-09T23:01:16.703Z,82.53
2018-05-09T23:03:48.258Z,82.53
2018-05-09T23:06:15.750Z,82.47
2018-05-09T23:08:43.242Z,82.42
2018-05-09T23:11:10.725Z,82.29
2018-05-09T23:13:40.230Z,82.21
2018-05-09T23:16:12.970Z,82.12
2018-05-09T23:18:43.221Z,82.02
2018-05-09T23:21:15.388Z,81.97
2018-05-09T23:23:42.958Z,81.90
2018-05-09T23:26:10.401Z,81.87
2018-05-09T23:28:37.973Z,81.84
2018-05-09T23:31:05.461Z,81.83
2018-05-09T23:33:36.303Z,81.87
2018-05-09T23:36:04.882Z,81.89
2018-05-09T23:38:35.354Z,81.92
2018-05-09T23:41:02.860Z,81.93
2018-05-09T23:43:30.366Z,82.00
2018-05-09T23:45:57.884Z,82.03
2018-05-09T23:48:25.408Z,82.11
2018-05-09T23:50:52.901Z,82.14
2018-05-09T23:53:21.326Z,82.30
2018-05-09T23:55:48.884Z,82.38
2018-05-09T23:58:16.356Z,82.42
